sensor_id;sensor_type;location;lat;lon;timestamp;P1;durP1;ratioP1;P2;durP2;ratioP2
24751;SDS011;27246;52.376;4.628;2023-08-30T00:04:47;6.25;;;4.90;;
24751;SDS011;27246;52.376;4.628;2023-08-30T00:09:49;5.18;;;4.68;;
24751;SDS011;27246;52.376;4.628;2023-08-30T00:14:51;6.20;;;5.13;;
24751;SDS011;27246;52.376;4.628;2023-08-30T00:19:53;6.90;;;5.60;;
24751;SDS011;27246;52.376;4.628;2023-08-30T00:24:56;6.75;;;5.10;;
24751;SDS011;27246;52.376;4.628;2023-08-30T00:29:58;6.65;;;5.22;;
24751;SDS011;27246;52.376;4.628;2023-08-30T00:35:01;6.68;;;5.30;;
24751;SDS011;27246;52.376;4.628;2023-08-30T00:40:04;6.43;;;5.25;;
24751;SDS011;27246;52.376;4.628;2023-08-30T00:45:07;9.05;;;5.43;;
24751;SDS011;27246;52.376;4.628;2023-08-30T00:50:09;8.35;;;5.82;;
24751;SDS011;27246;52.376;4.628;2023-08-30T00:55:11;5.63;;;5.03;;
24751;SDS011;27246;52.376;4.628;2023-08-30T01:00:14;6.95;;;5.57;;
24751;SDS011;27246;52.376;4.628;2023-08-30T01:05:16;6.70;;;5.47;;
24751;SDS011;27246;52.376;4.628;2023-08-30T01:10:21;6.22;;;5.45;;
24751;SDS011;27246;52.376;4.628;2023-08-30T01:15:27;5.63;;;4.97;;
24751;SDS011;27246;52.376;4.628;2023-08-30T01:20:31;7.20;;;5.25;;
24751;SDS011;27246;52.376;4.628;2023-08-30T01:31:07;7.50;;;5.53;;
24751;SDS011;27246;52.376;4.628;2023-08-30T01:36:10;6.30;;;4.93;;
24751;SDS011;27246;52.376;4.628;2023-08-30T01:41:17;7.03;;;5.38;;
24751;SDS011;27246;52.376;4.628;2023-08-30T01:46:20;7.38;;;5.40;;
24751;SDS011;27246;52.376;4.628;2023-08-30T01:51:22;8.10;;;5.93;;
24751;SDS011;27246;52.376;4.628;2023-08-30T01:56:24;9.43;;;5.70;;
24751;SDS011;27246;52.376;4.628;2023-08-30T02:01:26;8.73;;;5.97;;
24751;SDS011;27246;52.376;4.628;2023-08-30T02:06:30;8.68;;;5.93;;
24751;SDS011;27246;52.376;4.628;2023-08-30T02:11:37;7.35;;;5.65;;
24751;SDS011;27246;52.376;4.628;2023-08-30T02:16:47;8.77;;;6.75;;
24751;SDS011;27246;52.376;4.628;2023-08-30T02:21:50;8.65;;;6.55;;
24751;SDS011;27246;52.376;4.628;2023-08-30T02:26:52;8.10;;;6.38;;
24751;SDS011;27246;52.376;4.628;2023-08-30T02:31:54;9.15;;;7.32;;
24751;SDS011;27246;52.376;4.628;2023-08-30T02:36:55;8.35;;;6.78;;
24751;SDS011;27246;52.376;4.628;2023-08-30T02:41:58;9.88;;;7.30;;
24751;SDS011;27246;52.376;4.628;2023-08-30T02:47:00;9.35;;;6.70;;
24751;SDS011;27246;52.376;4.628;2023-08-30T02:52:02;10.45;;;7.50;;
24751;SDS011;27246;52.376;4.628;2023-08-30T02:57:04;10.15;;;7.05;;
24751;SDS011;27246;52.376;4.628;2023-08-30T03:02:06;13.00;;;8.13;;
24751;SDS011;27246;52.376;4.628;2023-08-30T03:07:07;8.60;;;7.70;;
24751;SDS011;27246;52.376;4.628;2023-08-30T03:12:09;9.30;;;7.90;;
24751;SDS011;27246;52.376;4.628;2023-08-30T03:17:12;10.80;;;8.10;;
24751;SDS011;27246;52.376;4.628;2023-08-30T03:22:13;11.25;;;8.23;;
24751;SDS011;27246;52.376;4.628;2023-08-30T03:27:16;10.90;;;8.45;;
24751;SDS011;27246;52.376;4.628;2023-08-30T03:32:18;9.15;;;7.65;;
24751;SDS011;27246;52.376;4.628;2023-08-30T03:37:23;10.68;;;8.45;;
24751;SDS011;27246;52.376;4.628;2023-08-30T03:42:24;12.15;;;8.48;;
24751;SDS011;27246;52.376;4.628;2023-08-30T03:47:26;11.55;;;7.82;;
24751;SDS011;27246;52.376;4.628;2023-08-30T03:52:28;11.60;;;8.85;;
24751;SDS011;27246;52.376;4.628;2023-08-30T03:57:29;11.63;;;8.68;;
24751;SDS011;27246;52.376;4.628;2023-08-30T04:02:32;10.85;;;7.93;;
24751;SDS011;27246;52.376;4.628;2023-08-30T04:07:35;11.63;;;8.70;;
24751;SDS011;27246;52.376;4.628;2023-08-30T04:12:37;12.75;;;8.70;;
24751;SDS011;27246;52.376;4.628;2023-08-30T04:17:39;10.80;;;8.30;;
24751;SDS011;27246;52.376;4.628;2023-08-30T04:22:41;11.38;;;8.52;;
24751;SDS011;27246;52.376;4.628;2023-08-30T04:27:46;14.02;;;9.02;;
24751;SDS011;27246;52.376;4.628;2023-08-30T04:32:50;11.85;;;8.48;;
24751;SDS011;27246;52.376;4.628;2023-08-30T04:37:52;11.55;;;9.68;;
24751;SDS011;27246;52.376;4.628;2023-08-30T04:42:54;12.05;;;10.23;;
24751;SDS011;27246;52.376;4.628;2023-08-30T04:47:58;11.90;;;9.02;;
24751;SDS011;27246;52.376;4.628;2023-08-30T04:53:01;11.93;;;9.45;;
24751;SDS011;27246;52.376;4.628;2023-08-30T04:58:03;11.75;;;9.45;;
24751;SDS011;27246;52.376;4.628;2023-08-30T05:03:08;9.50;;;8.35;;
24751;SDS011;27246;52.376;4.628;2023-08-30T05:08:10;11.15;;;9.25;;
24751;SDS011;27246;52.376;4.628;2023-08-30T05:13:15;11.02;;;8.50;;
24751;SDS011;27246;52.376;4.628;2023-08-30T05:18:18;11.63;;;8.57;;
24751;SDS011;27246;52.376;4.628;2023-08-30T05:23:21;11.65;;;8.80;;
24751;SDS011;27246;52.376;4.628;2023-08-30T05:28:22;10.82;;;8.70;;
24751;SDS011;27246;52.376;4.628;2023-08-30T05:33:25;11.38;;;8.90;;
24751;SDS011;27246;52.376;4.628;2023-08-30T05:38:36;12.15;;;9.13;;
24751;SDS011;27246;52.376;4.628;2023-08-30T05:43:56;13.55;;;8.90;;
24751;SDS011;27246;52.376;4.628;2023-08-30T05:48:58;10.07;;;8.55;;
24751;SDS011;27246;52.376;4.628;2023-08-30T05:54:03;12.75;;;8.60;;
24751;SDS011;27246;52.376;4.628;2023-08-30T05:59:06;10.48;;;9.02;;
24751;SDS011;27246;52.376;4.628;2023-08-30T06:04:07;12.10;;;8.90;;
24751;SDS011;27246;52.376;4.628;2023-08-30T06:09:11;14.05;;;9.85;;
24751;SDS011;27246;52.376;4.628;2023-08-30T06:14:16;14.82;;;9.82;;
24751;SDS011;27246;52.376;4.628;2023-08-30T06:19:17;13.95;;;10.88;;
24751;SDS011;27246;52.376;4.628;2023-08-30T06:24:19;14.15;;;10.93;;
24751;SDS011;27246;52.376;4.628;2023-08-30T06:29:21;12.27;;;10.23;;
24751;SDS011;27246;52.376;4.628;2023-08-30T06:34:22;16.60;;;10.90;;
24751;SDS011;27246;52.376;4.628;2023-08-30T06:39:24;15.13;;;11.23;;
24751;SDS011;27246;52.376;4.628;2023-08-30T06:44:26;14.85;;;11.65;;
24751;SDS011;27246;52.376;4.628;2023-08-30T06:49:28;15.30;;;11.80;;
24751;SDS011;27246;52.376;4.628;2023-08-30T06:54:33;14.25;;;10.50;;
24751;SDS011;27246;52.376;4.628;2023-08-30T06:59:36;12.98;;;10.25;;
24751;SDS011;27246;52.376;4.628;2023-08-30T07:04:39;14.63;;;11.63;;
24751;SDS011;27246;52.376;4.628;2023-08-30T07:09:42;13.35;;;10.63;;
24751;SDS011;27246;52.376;4.628;2023-08-30T07:14:44;11.68;;;10.15;;
24751;SDS011;27246;52.376;4.628;2023-08-30T07:19:45;15.55;;;11.10;;
24751;SDS011;27246;52.376;4.628;2023-08-30T07:24:47;12.70;;;10.00;;
24751;SDS011;27246;52.376;4.628;2023-08-30T07:29:49;13.65;;;10.57;;
24751;SDS011;27246;52.376;4.628;2023-08-30T07:34:51;11.85;;;10.60;;
24751;SDS011;27246;52.376;4.628;2023-08-30T07:39:53;10.32;;;8.60;;
24751;SDS011;27246;52.376;4.628;2023-08-30T07:44:54;10.10;;;8.15;;
24751;SDS011;27246;52.376;4.628;2023-08-30T07:49:56;10.13;;;7.25;;
24751;SDS011;27246;52.376;4.628;2023-08-30T07:54:58;11.02;;;7.47;;
24751;SDS011;27246;52.376;4.628;2023-08-30T07:59:59;9.45;;;8.13;;
24751;SDS011;27246;52.376;4.628;2023-08-30T08:05:01;9.43;;;8.38;;
24751;SDS011;27246;52.376;4.628;2023-08-30T08:10:03;9.50;;;8.55;;
24751;SDS011;27246;52.376;4.628;2023-08-30T08:15:06;9.07;;;7.68;;
24751;SDS011;27246;52.376;4.628;2023-08-30T08:20:08;8.80;;;7.70;;
24751;SDS011;27246;52.376;4.628;2023-08-30T08:25:10;8.50;;;6.50;;
24751;SDS011;27246;52.376;4.628;2023-08-30T08:30:13;8.40;;;7.22;;
24751;SDS011;27246;52.376;4.628;2023-08-30T08:35:15;7.43;;;6.65;;
24751;SDS011;27246;52.376;4.628;2023-08-30T08:40:17;8.13;;;7.32;;
24751;SDS011;27246;52.376;4.628;2023-08-30T08:45:35;7.75;;;6.38;;
24751;SDS011;27246;52.376;4.628;2023-08-30T08:50:37;9.07;;;6.50;;
24751;SDS011;27246;52.376;4.628;2023-08-30T08:55:40;5.70;;;4.55;;
24751;SDS011;27246;52.376;4.628;2023-08-30T09:00:43;2.78;;;2.53;;
24751;SDS011;27246;52.376;4.628;2023-08-30T09:05:46;3.38;;;2.80;;
24751;SDS011;27246;52.376;4.628;2023-08-30T09:10:48;3.08;;;2.25;;
24751;SDS011;27246;52.376;4.628;2023-08-30T09:15:52;2.70;;;2.35;;
24751;SDS011;27246;52.376;4.628;2023-08-30T09:20:53;4.00;;;2.40;;
24751;SDS011;27246;52.376;4.628;2023-08-30T09:26:05;2.80;;;2.30;;
24751;SDS011;27246;52.376;4.628;2023-08-30T09:31:07;3.80;;;2.28;;
24751;SDS011;27246;52.376;4.628;2023-08-30T09:36:22;5.70;;;2.53;;
24751;SDS011;27246;52.376;4.628;2023-08-30T09:41:24;5.15;;;3.25;;
24751;SDS011;27246;52.376;4.628;2023-08-30T09:46:26;5.43;;;2.55;;
24751;SDS011;27246;52.376;4.628;2023-08-30T09:51:49;7.28;;;2.47;;
24751;SDS011;27246;52.376;4.628;2023-08-30T09:56:54;5.97;;;2.40;;
24751;SDS011;27246;52.376;4.628;2023-08-30T10:01:58;7.13;;;2.53;;
24751;SDS011;27246;52.376;4.628;2023-08-30T10:07:03;7.60;;;4.25;;
24751;SDS011;27246;52.376;4.628;2023-08-30T10:12:06;5.80;;;2.00;;
24751;SDS011;27246;52.376;4.628;2023-08-30T10:17:08;4.88;;;1.95;;
24751;SDS011;27246;52.376;4.628;2023-08-30T10:22:14;6.60;;;2.30;;
24751;SDS011;27246;52.376;4.628;2023-08-30T10:27:18;5.28;;;2.08;;
24751;SDS011;27246;52.376;4.628;2023-08-30T10:32:23;6.40;;;2.20;;
24751;SDS011;27246;52.376;4.628;2023-08-30T10:37:26;12.43;;;2.78;;
24751;SDS011;27246;52.376;4.628;2023-08-30T10:42:28;6.88;;;2.20;;
24751;SDS011;27246;52.376;4.628;2023-08-30T10:47:32;7.43;;;2.28;;
24751;SDS011;27246;52.376;4.628;2023-08-30T10:52:37;4.63;;;1.88;;
24751;SDS011;27246;52.376;4.628;2023-08-30T10:57:43;11.10;;;2.50;;
24751;SDS011;27246;52.376;4.628;2023-08-30T11:02:59;4.50;;;2.08;;
24751;SDS011;27246;52.376;4.628;2023-08-30T11:08:01;10.80;;;2.47;;
24751;SDS011;27246;52.376;4.628;2023-08-30T11:13:03;5.93;;;2.13;;
24751;SDS011;27246;52.376;4.628;2023-08-30T11:18:04;7.57;;;2.35;;
24751;SDS011;27246;52.376;4.628;2023-08-30T11:23:07;6.63;;;1.73;;
24751;SDS011;27246;52.376;4.628;2023-08-30T11:28:09;4.55;;;2.20;;
24751;SDS011;27246;52.376;4.628;2023-08-30T11:33:16;6.68;;;1.60;;
24751;SDS011;27246;52.376;4.628;2023-08-30T11:38:20;5.80;;;2.00;;
24751;SDS011;27246;52.376;4.628;2023-08-30T11:43:22;5.40;;;1.85;;
24751;SDS011;27246;52.376;4.628;2023-08-30T11:48:24;3.15;;;1.42;;
24751;SDS011;27246;52.376;4.628;2023-08-30T11:53:26;7.90;;;1.33;;
24751;SDS011;27246;52.376;4.628;2023-08-30T11:58:31;6.35;;;1.50;;
24751;SDS011;27246;52.376;4.628;2023-08-30T12:03:34;3.75;;;1.30;;
24751;SDS011;27246;52.376;4.628;2023-08-30T12:08:37;5.07;;;1.50;;
24751;SDS011;27246;52.376;4.628;2023-08-30T12:13:39;15.20;;;3.35;;
24751;SDS011;27246;52.376;4.628;2023-08-30T12:18:43;2.78;;;1.17;;
24751;SDS011;27246;52.376;4.628;2023-08-30T12:23:45;4.10;;;1.20;;
24751;SDS011;27246;52.376;4.628;2023-08-30T12:28:47;4.93;;;1.95;;
24751;SDS011;27246;52.376;4.628;2023-08-30T12:33:49;4.28;;;1.27;;
24751;SDS011;27246;52.376;4.628;2023-08-30T12:38:51;5.10;;;1.10;;
24751;SDS011;27246;52.376;4.628;2023-08-30T12:43:52;3.58;;;1.10;;
24751;SDS011;27246;52.376;4.628;2023-08-30T12:48:55;3.17;;;1.10;;
24751;SDS011;27246;52.376;4.628;2023-08-30T12:54:00;5.65;;;1.83;;
24751;SDS011;27246;52.376;4.628;2023-08-30T12:59:01;7.82;;;2.10;;
24751;SDS011;27246;52.376;4.628;2023-08-30T13:04:03;7.22;;;1.30;;
24751;SDS011;27246;52.376;4.628;2023-08-30T13:09:05;3.95;;;1.55;;
24751;SDS011;27246;52.376;4.628;2023-08-30T13:14:07;5.15;;;1.30;;
24751;SDS011;27246;52.376;4.628;2023-08-30T13:19:09;4.22;;;1.35;;
24751;SDS011;27246;52.376;4.628;2023-08-30T13:24:10;4.72;;;1.40;;
24751;SDS011;27246;52.376;4.628;2023-08-30T13:29:14;7.25;;;1.55;;
24751;SDS011;27246;52.376;4.628;2023-08-30T13:34:16;5.38;;;1.98;;
24751;SDS011;27246;52.376;4.628;2023-08-30T13:39:18;6.47;;;1.98;;
24751;SDS011;27246;52.376;4.628;2023-08-30T13:44:21;5.82;;;1.48;;
24751;SDS011;27246;52.376;4.628;2023-08-30T13:49:23;5.15;;;1.67;;
24751;SDS011;27246;52.376;4.628;2023-08-30T13:54:25;5.03;;;1.55;;
24751;SDS011;27246;52.376;4.628;2023-08-30T13:59:27;2.78;;;1.00;;
24751;SDS011;27246;52.376;4.628;2023-08-30T14:04:30;3.70;;;0.90;;
24751;SDS011;27246;52.376;4.628;2023-08-30T14:09:33;1.92;;;0.90;;
24751;SDS011;27246;52.376;4.628;2023-08-30T14:14:35;3.58;;;0.93;;
24751;SDS011;27246;52.376;4.628;2023-08-30T14:19:37;3.42;;;1.20;;
24751;SDS011;27246;52.376;4.628;2023-08-30T14:24:39;4.32;;;1.08;;
24751;SDS011;27246;52.376;4.628;2023-08-30T14:30:00;4.15;;;0.90;;
24751;SDS011;27246;52.376;4.628;2023-08-30T14:35:03;3.38;;;0.80;;
24751;SDS011;27246;52.376;4.628;2023-08-30T14:40:05;3.60;;;1.20;;
24751;SDS011;27246;52.376;4.628;2023-08-30T14:45:07;4.38;;;0.98;;
24751;SDS011;27246;52.376;4.628;2023-08-30T14:50:09;5.13;;;1.42;;
24751;SDS011;27246;52.376;4.628;2023-08-30T14:55:12;3.88;;;1.00;;
24751;SDS011;27246;52.376;4.628;2023-08-30T15:00:15;1.65;;;0.73;;
24751;SDS011;27246;52.376;4.628;2023-08-30T15:05:17;2.28;;;0.85;;
24751;SDS011;27246;52.376;4.628;2023-08-30T15:10:19;4.70;;;0.93;;
24751;SDS011;27246;52.376;4.628;2023-08-30T15:15:21;3.90;;;1.15;;
24751;SDS011;27246;52.376;4.628;2023-08-30T15:20:22;5.88;;;1.13;;
24751;SDS011;27246;52.376;4.628;2023-08-30T15:25:24;3.13;;;0.80;;
24751;SDS011;27246;52.376;4.628;2023-08-30T15:30:26;2.75;;;0.90;;
24751;SDS011;27246;52.376;4.628;2023-08-30T15:35:28;2.50;;;0.80;;
24751;SDS011;27246;52.376;4.628;2023-08-30T15:40:30;3.47;;;0.95;;
24751;SDS011;27246;52.376;4.628;2023-08-30T15:45:33;2.40;;;0.73;;
24751;SDS011;27246;52.376;4.628;2023-08-30T15:50:35;3.08;;;0.93;;
24751;SDS011;27246;52.376;4.628;2023-08-30T15:55:36;2.53;;;0.80;;
24751;SDS011;27246;52.376;4.628;2023-08-30T16:00:38;3.20;;;0.90;;
24751;SDS011;27246;52.376;4.628;2023-08-30T16:05:42;3.83;;;0.85;;
24751;SDS011;27246;52.376;4.628;2023-08-30T16:10:49;5.65;;;0.93;;
24751;SDS011;27246;52.376;4.628;2023-08-30T16:15:56;3.60;;;0.80;;
24751;SDS011;27246;52.376;4.628;2023-08-30T16:20:59;4.07;;;1.10;;
24751;SDS011;27246;52.376;4.628;2023-08-30T16:26:00;4.13;;;0.65;;
24751;SDS011;27246;52.376;4.628;2023-08-30T16:31:06;3.30;;;0.85;;
24751;SDS011;27246;52.376;4.628;2023-08-30T16:36:08;6.00;;;0.93;;
24751;SDS011;27246;52.376;4.628;2023-08-30T16:41:10;2.80;;;0.70;;
24751;SDS011;27246;52.376;4.628;2023-08-30T16:46:14;4.40;;;0.70;;
24751;SDS011;27246;52.376;4.628;2023-08-30T16:51:16;5.60;;;1.25;;
24751;SDS011;27246;52.376;4.628;2023-08-30T16:56:18;10.30;;;1.35;;
24751;SDS011;27246;52.376;4.628;2023-08-30T17:01:19;3.92;;;1.30;;
24751;SDS011;27246;52.376;4.628;2023-08-30T17:06:21;4.35;;;1.35;;
24751;SDS011;27246;52.376;4.628;2023-08-30T17:11:23;4.03;;;0.68;;
24751;SDS011;27246;52.376;4.628;2023-08-30T17:16:25;4.03;;;1.02;;
24751;SDS011;27246;52.376;4.628;2023-08-30T17:21:28;4.40;;;1.42;;
24751;SDS011;27246;52.376;4.628;2023-08-30T17:26:30;5.22;;;0.90;;
24751;SDS011;27246;52.376;4.628;2023-08-30T17:31:34;4.00;;;0.70;;
24751;SDS011;27246;52.376;4.628;2023-08-30T17:36:36;4.15;;;0.70;;
24751;SDS011;27246;52.376;4.628;2023-08-30T17:41:38;2.92;;;0.68;;
24751;SDS011;27246;52.376;4.628;2023-08-30T17:46:40;5.10;;;1.27;;
24751;SDS011;27246;52.376;4.628;2023-08-30T17:51:43;4.80;;;0.95;;
24751;SDS011;27246;52.376;4.628;2023-08-30T17:56:47;4.63;;;1.23;;
24751;SDS011;27246;52.376;4.628;2023-08-30T18:01:49;2.90;;;0.75;;
24751;SDS011;27246;52.376;4.628;2023-08-30T18:06:51;2.55;;;0.73;;
24751;SDS011;27246;52.376;4.628;2023-08-30T18:11:53;4.38;;;0.90;;
24751;SDS011;27246;52.376;4.628;2023-08-30T18:16:55;3.13;;;0.75;;
24751;SDS011;27246;52.376;4.628;2023-08-30T18:21:57;2.45;;;1.23;;
24751;SDS011;27246;52.376;4.628;2023-08-30T18:26:59;4.82;;;1.00;;
24751;SDS011;27246;52.376;4.628;2023-08-30T18:32:01;3.53;;;0.82;;
24751;SDS011;27246;52.376;4.628;2023-08-30T18:37:04;5.90;;;0.93;;
24751;SDS011;27246;52.376;4.628;2023-08-30T18:42:06;5.03;;;1.10;;
24751;SDS011;27246;52.376;4.628;2023-08-30T18:47:08;5.00;;;0.95;;
24751;SDS011;27246;52.376;4.628;2023-08-30T18:52:12;4.03;;;0.75;;
24751;SDS011;27246;52.376;4.628;2023-08-30T18:57:14;4.57;;;0.73;;
24751;SDS011;27246;52.376;4.628;2023-08-30T19:02:16;4.22;;;0.80;;
24751;SDS011;27246;52.376;4.628;2023-08-30T19:07:18;1.65;;;0.77;;
24751;SDS011;27246;52.376;4.628;2023-08-30T19:12:21;3.22;;;0.65;;
24751;SDS011;27246;52.376;4.628;2023-08-30T19:17:23;2.20;;;0.90;;
24751;SDS011;27246;52.376;4.628;2023-08-30T19:22:25;2.40;;;0.88;;
24751;SDS011;27246;52.376;4.628;2023-08-30T19:27:27;2.90;;;0.77;;
24751;SDS011;27246;52.376;4.628;2023-08-30T19:32:29;4.32;;;0.75;;
24751;SDS011;27246;52.376;4.628;2023-08-30T19:37:31;6.70;;;0.85;;
24751;SDS011;27246;52.376;4.628;2023-08-30T19:42:33;1.98;;;0.80;;
24751;SDS011;27246;52.376;4.628;2023-08-30T19:47:34;2.70;;;0.95;;
24751;SDS011;27246;52.376;4.628;2023-08-30T19:52:41;2.40;;;1.15;;
24751;SDS011;27246;52.376;4.628;2023-08-30T19:57:48;2.55;;;0.65;;
24751;SDS011;27246;52.376;4.628;2023-08-30T20:02:50;2.20;;;0.77;;
24751;SDS011;27246;52.376;4.628;2023-08-30T20:07:52;0.95;;;0.60;;
24751;SDS011;27246;52.376;4.628;2023-08-30T20:12:54;4.72;;;1.00;;
24751;SDS011;27246;52.376;4.628;2023-08-30T20:17:55;2.00;;;0.60;;
24751;SDS011;27246;52.376;4.628;2023-08-30T20:22:57;3.15;;;0.95;;
24751;SDS011;27246;52.376;4.628;2023-08-30T20:27:59;5.00;;;1.00;;
24751;SDS011;27246;52.376;4.628;2023-08-30T20:33:01;4.32;;;1.42;;
24751;SDS011;27246;52.376;4.628;2023-08-30T20:38:03;3.58;;;1.80;;
24751;SDS011;27246;52.376;4.628;2023-08-30T20:43:05;2.50;;;1.15;;
24751;SDS011;27246;52.376;4.628;2023-08-30T20:48:09;4.30;;;1.02;;
24751;SDS011;27246;52.376;4.628;2023-08-30T20:53:10;1.95;;;0.90;;
24751;SDS011;27246;52.376;4.628;2023-08-30T20:58:12;1.13;;;0.45;;
24751;SDS011;27246;52.376;4.628;2023-08-30T21:03:14;2.40;;;1.00;;
24751;SDS011;27246;52.376;4.628;2023-08-30T21:08:21;4.05;;;0.65;;
24751;SDS011;27246;52.376;4.628;2023-08-30T21:13:24;3.78;;;0.82;;
24751;SDS011;27246;52.376;4.628;2023-08-30T21:18:26;2.75;;;0.60;;
24751;SDS011;27246;52.376;4.628;2023-08-30T21:23:28;1.92;;;0.80;;
24751;SDS011;27246;52.376;4.628;2023-08-30T21:28:29;4.05;;;0.55;;
24751;SDS011;27246;52.376;4.628;2023-08-30T21:33:34;3.67;;;0.73;;
24751;SDS011;27246;52.376;4.628;2023-08-30T21:38:35;4.80;;;1.13;;
24751;SDS011;27246;52.376;4.628;2023-08-30T21:43:37;3.90;;;0.60;;
24751;SDS011;27246;52.376;4.628;2023-08-30T21:48:39;1.27;;;0.60;;
24751;SDS011;27246;52.376;4.628;2023-08-30T21:53:41;3.05;;;0.60;;
24751;SDS011;27246;52.376;4.628;2023-08-30T21:58:45;2.00;;;0.50;;
24751;SDS011;27246;52.376;4.628;2023-08-30T22:03:47;1.38;;;0.57;;
24751;SDS011;27246;52.376;4.628;2023-08-30T22:08:49;1.63;;;0.50;;
24751;SDS011;27246;52.376;4.628;2023-08-30T22:13:52;1.88;;;0.75;;
24751;SDS011;27246;52.376;4.628;2023-08-30T22:18:54;1.98;;;0.68;;
24751;SDS011;27246;52.376;4.628;2023-08-30T22:23:59;2.10;;;0.65;;
24751;SDS011;27246;52.376;4.628;2023-08-30T22:29:03;2.65;;;0.63;;
24751;SDS011;27246;52.376;4.628;2023-08-30T22:34:05;2.80;;;0.70;;
24751;SDS011;27246;52.376;4.628;2023-08-30T22:39:07;3.78;;;0.73;;
24751;SDS011;27246;52.376;4.628;2023-08-30T22:44:09;3.22;;;1.23;;
24751;SDS011;27246;52.376;4.628;2023-08-30T22:49:13;0.65;;;0.30;;
24751;SDS011;27246;52.376;4.628;2023-08-30T22:54:15;1.75;;;0.70;;
24751;SDS011;27246;52.376;4.628;2023-08-30T22:59:20;4.75;;;0.70;;
24751;SDS011;27246;52.376;4.628;2023-08-30T23:04:23;1.70;;;0.43;;
24751;SDS011;27246;52.376;4.628;2023-08-30T23:09:25;3.50;;;0.47;;
24751;SDS011;27246;52.376;4.628;2023-08-30T23:14:27;2.90;;;0.60;;
24751;SDS011;27246;52.376;4.628;2023-08-30T23:19:29;3.20;;;0.60;;
24751;SDS011;27246;52.376;4.628;2023-08-30T23:24:30;1.40;;;0.45;;
24751;SDS011;27246;52.376;4.628;2023-08-30T23:29:32;1.75;;;0.50;;
24751;SDS011;27246;52.376;4.628;2023-08-30T23:34:34;2.03;;;0.57;;
24751;SDS011;27246;52.376;4.628;2023-08-30T23:39:36;1.48;;;0.70;;
24751;SDS011;27246;52.376;4.628;2023-08-30T23:44:38;3.78;;;0.63;;
24751;SDS011;27246;52.376;4.628;2023-08-30T23:49:39;2.58;;;0.68;;
24751;SDS011;27246;52.376;4.628;2023-08-30T23:54:45;3.45;;;0.75;;
24751;SDS011;27246;52.376;4.628;2023-08-30T23:59:47;2.92;;;1.02;;
